Time;durP1;ratioP1;P1;durP2;ratioP2;P2;SDS_P1;SDS_P2;PMS_P1;PMS_P2;Temp;Humidity;BMP_temperature;BMP_pressure;BME280_temperature;BME280_humidity;BME280_pressure;Samples;Min_cycle;Max_cycle;Signal;HPM_P1;HPM_P2
2021/01/11 00:02:04;;;;;;;2.85;1.02;;;0.80;99.90;;;;;;4446596;32;20061;-57
2021/01/11 00:04:30;;;;;;;0.43;0.43;;;0.80;99.90;;;;;;4446802;32;20076;-55
2021/01/11 00:06:56;;;;;;;0.50;0.50;;;0.80;99.90;;;;;;4438000;32;20514;-53
2021/01/11 00:09:22;;;;;;;1.05;0.80;;;0.80;99.90;;;;;;4429973;32;20058;-58
2021/01/11 00:11:48;;;;;;;2.45;1.25;;;0.80;99.90;;;;;;4429932;32;20073;-58
2021/01/11 00:14:14;;;;;;;0.75;0.70;;;0.80;99.90;;;;;;4429079;32;20450;-55
2021/01/11 00:16:39;;;;;;;3.30;0.90;;;0.70;99.90;;;;;;4430111;32;20142;-54
2021/01/11 00:19:05;;;;;;;0.60;0.60;;;0.70;99.90;;;;;;4430022;32;20110;-56
2021/01/11 00:21:31;;;;;;;0.60;0.60;;;0.70;99.90;;;;;;4429621;32;20062;-53
2021/01/11 00:23:56;;;;;;;0.40;0.40;;;0.70;99.90;;;;;;4430441;32;20412;-53
2021/01/11 00:26:22;;;;;;;0.93;0.90;;;0.80;99.90;;;;;;4431069;32;20065;-54
2021/01/11 00:28:48;;;;;;;0.50;0.50;;;0.70;99.90;;;;;;4430543;32;20057;-55
2021/01/11 00:31:23;;;;;;;11.27;1.75;;;0.70;99.90;;;;;;4430178;32;20127;-55
2021/01/11 00:33:49;;;;;;;0.50;0.50;;;0.70;99.90;;;;;;4429503;32;20065;-54
2021/01/11 00:36:15;;;;;;;0.52;0.52;;;0.70;99.90;;;;;;4417212;32;20122;-54
2021/01/11 00:38:40;;;;;;;0.70;0.70;;;0.70;99.90;;;;;;4428417;32;20053;-55
2021/01/11 00:41:06;;;;;;;1.73;1.20;;;0.70;99.90;;;;;;4430409;32;20086;-57
2021/01/11 00:43:31;;;;;;;14.00;2.53;;;0.70;99.90;;;;;;4430803;32;20068;-56
2021/01/11 00:45:57;;;;;;;0.73;0.73;;;0.80;99.90;;;;;;4430528;32;20115;-58
2021/01/11 00:48:22;;;;;;;0.60;0.60;;;0.80;99.90;;;;;;4430060;32;20066;-57
2021/01/11 00:50:48;;;;;;;0.75;0.75;;;0.90;99.90;;;;;;4429169;32;20065;-56
2021/01/11 00:53:13;;;;;;;0.60;0.60;;;0.80;99.90;;;;;;4429575;32;20451;-56
2021/01/11 00:55:38;;;;;;;0.62;0.62;;;0.80;99.90;;;;;;4431017;32;20057;-58
2021/01/11 00:58:04;;;;;;;3.92;1.50;;;0.90;99.90;;;;;;4430630;32;20065;-56
2021/01/11 01:00:29;;;;;;;0.50;0.50;;;0.90;99.90;;;;;;4429772;32;20123;-55
2021/01/11 01:02:55;;;;;;;9.60;1.00;;;0.80;99.90;;;;;;4430390;32;20069;-57
2021/01/11 01:05:21;;;;;;;0.60;0.60;;;0.90;99.90;;;;;;4429865;32;20470;-55
2021/01/11 01:07:46;;;;;;;0.70;0.70;;;0.90;99.90;;;;;;4442891;32;20062;-58
2021/01/11 01:10:13;;;;;;;0.60;0.60;;;0.90;99.90;;;;;;4444665;32;20064;-54
2021/01/11 01:12:39;;;;;;;1.50;1.15;;;1.00;99.90;;;;;;4430889;32;20069;-57
2021/01/11 01:15:06;;;;;;;0.68;0.68;;;1.10;99.90;;;;;;4430474;32;20076;-57
2021/01/11 01:17:34;;;;;;;3.50;2.25;;;1.00;99.90;;;;;;4429660;32;20049;-57
2021/01/11 01:19:59;;;;;;;0.60;0.60;;;1.10;99.90;;;;;;4429198;32;20073;-53
2021/01/11 01:22:25;;;;;;;1.75;1.23;;;1.10;99.90;;;;;;4429487;32;20076;-56
2021/01/11 01:24:50;;;;;;;0.73;0.73;;;1.10;99.90;;;;;;4428991;32;20527;-56
2021/01/11 01:27:15;;;;;;;4.12;2.15;;;1.00;99.90;;;;;;4430036;32;20077;-56
2021/01/11 01:29:41;;;;;;;1.02;1.02;;;1.00;99.90;;;;;;4430065;32;20072;-54
2021/01/11 01:32:06;;;;;;;0.68;0.68;;;0.90;99.90;;;;;;4430106;32;20076;-55
2021/01/11 01:34:32;;;;;;;1.92;1.42;;;0.90;99.90;;;;;;4429010;32;20061;-54
2021/01/11 01:36:57;;;;;;;1.92;1.30;;;1.00;99.90;;;;;;4430166;32;20423;-57
2021/01/11 01:39:23;;;;;;;0.65;0.65;;;1.00;99.90;;;;;;4429606;32;20078;-56
2021/01/11 01:41:49;;;;;;;0.57;0.57;;;1.00;99.90;;;;;;4429773;32;20224;-57
2021/01/11 01:44:14;;;;;;;2.28;1.12;;;1.10;99.90;;;;;;4427387;32;20081;-57
2021/01/11 01:46:40;;;;;;;1.65;1.20;;;1.20;99.90;;;;;;4428861;32;20074;-54
2021/01/11 01:49:06;;;;;;;0.70;0.70;;;1.20;99.90;;;;;;4428257;32;20074;-54
2021/01/11 01:51:32;;;;;;;1.25;0.77;;;1.20;99.90;;;;;;4430040;32;20558;-56
2021/01/11 01:53:58;;;;;;;1.67;1.20;;;1.20;99.90;;;;;;4428389;32;20064;-56
2021/01/11 01:56:25;;;;;;;2.95;1.15;;;1.30;99.90;;;;;;4429216;32;20388;-57
2021/01/11 01:58:51;;;;;;;0.70;0.70;;;1.30;99.90;;;;;;4429612;32;20078;-55
2021/01/11 02:01:16;;;;;;;0.60;0.60;;;1.20;99.90;;;;;;4428543;32;20428;-58
2021/01/11 02:03:42;;;;;;;0.95;0.95;;;1.30;99.90;;;;;;4429799;32;20069;-58
2021/01/11 02:06:07;;;;;;;3.37;1.08;;;1.20;99.90;;;;;;4430025;32;20070;-58
2021/01/11 02:08:43;;;;;;;0.93;0.88;;;1.10;99.90;;;;;;4428180;32;20065;-56
2021/01/11 02:11:21;;;;;;;0.98;0.90;;;1.10;99.90;;;;;;4432946;32;20107;-57
2021/01/11 02:14:00;;;;;;;0.50;0.50;;;1.10;99.90;;;;;;4444320;32;20088;-54
2021/01/11 02:16:41;;;;;;;2.97;1.37;;;1.20;99.90;;;;;;4444054;32;20060;-57
2021/01/11 02:19:44;;;;;;;0.70;0.70;;;1.30;99.90;;;;;;4444336;32;20069;-53
2021/01/11 02:22:17;;;;;;;0.40;0.40;;;1.30;99.90;;;;;;4444642;32;20053;-53
2021/01/11 02:24:56;;;;;;;0.60;0.60;;;1.30;99.90;;;;;;4443796;32;20151;-55
2021/01/11 02:27:50;;;;;;;0.40;0.40;;;1.30;99.90;;;;;;4445312;32;20070;-56
2021/01/11 02:30:19;;;;;;;2.65;1.25;;;1.30;99.90;;;;;;4443434;32;20072;-54
2021/01/11 02:32:49;;;;;;;0.60;0.60;;;1.30;99.90;;;;;;4445078;32;20081;-56
2021/01/11 02:35:16;;;;;;;0.60;0.60;;;1.20;99.90;;;;;;4444795;32;20143;-57
2021/01/11 02:37:42;;;;;;;0.60;0.60;;;1.20;99.90;;;;;;4430628;32;20070;-58
2021/01/11 02:40:10;;;;;;;0.50;0.50;;;1.40;99.90;;;;;;4444083;32;20069;-57
2021/01/11 02:42:35;;;;;;;1.35;0.77;;;1.30;99.90;;;;;;4442900;32;20449;-56
2021/01/11 02:45:02;;;;;;;0.77;0.77;;;1.40;99.90;;;;;;4430603;32;20107;-53
2021/01/11 02:47:41;;;;;;;0.30;0.30;;;1.50;99.90;;;;;;4443681;32;20069;-57
2021/01/11 02:50:09;;;;;;;0.70;0.70;;;1.40;99.90;;;;;;4442343;32;20066;-56
2021/01/11 02:52:51;;;;;;;0.50;0.50;;;1.50;99.90;;;;;;4444434;32;20053;-58
2021/01/11 02:55:25;;;;;;;0.40;0.40;;;1.50;99.90;;;;;;4443439;32;20072;-54
2021/01/11 02:58:03;;;;;;;0.77;0.77;;;1.50;99.90;;;;;;4446853;32;20086;-55
2021/01/11 03:00:35;;;;;;;0.55;0.55;;;1.20;99.90;;;;;;4447485;32;20065;-57
2021/01/11 03:03:04;;;;;;;0.60;0.60;;;1.30;99.90;;;;;;4434616;32;20117;-55
2021/01/11 03:05:30;;;;;;;0.60;0.60;;;1.20;99.90;;;;;;4446839;32;20115;-57
2021/01/11 03:07:58;;;;;;;2.28;1.30;;;1.20;99.90;;;;;;4430337;32;20120;-56
2021/01/11 03:10:23;;;;;;;0.68;0.68;;;1.20;99.90;;;;;;4430892;32;20081;-57
2021/01/11 03:12:49;;;;;;;0.52;0.52;;;1.30;99.90;;;;;;4431074;32;20432;-53
2021/01/11 03:15:16;;;;;;;0.50;0.50;;;1.30;99.90;;;;;;4430926;32;20554;-55
2021/01/11 03:17:42;;;;;;;0.80;0.80;;;1.30;99.90;;;;;;4430088;32;20120;-54
2021/01/11 03:20:10;;;;;;;0.68;0.68;;;1.40;99.90;;;;;;4430681;32;20061;-56
2021/01/11 03:22:36;;;;;;;0.50;0.50;;;1.40;99.90;;;;;;4431635;32;20527;-58
2021/01/11 03:25:02;;;;;;;1.08;0.88;;;1.40;99.90;;;;;;4432090;32;20074;-56
2021/01/11 03:27:28;;;;;;;0.60;0.60;;;1.40;99.90;;;;;;4430046;32;20074;-56
2021/01/11 03:29:54;;;;;;;0.60;0.60;;;1.40;99.90;;;;;;4431385;32;20073;-56
2021/01/11 03:32:19;;;;;;;0.50;0.50;;;1.40;99.90;;;;;;4432072;32;20120;-57
2021/01/11 03:34:45;;;;;;;0.60;0.60;;;1.30;99.90;;;;;;4431453;32;20065;-57
2021/01/11 03:37:10;;;;;;;2.20;1.15;;;1.20;99.90;;;;;;4430406;32;20058;-57
2021/01/11 03:39:35;;;;;;;0.80;0.80;;;1.30;99.90;;;;;;4430007;32;20061;-55
2021/01/11 03:42:01;;;;;;;0.60;0.60;;;1.30;99.90;;;;;;4430186;32;20543;-55
2021/01/11 03:44:26;;;;;;;0.60;0.60;;;1.30;99.90;;;;;;4431471;32;20065;-57
2021/01/11 03:46:52;;;;;;;0.70;0.70;;;1.30;99.90;;;;;;4431698;32;20120;-58
2021/01/11 03:49:17;;;;;;;0.40;0.40;;;1.30;99.90;;;;;;4429734;32;20057;-57
2021/01/11 03:51:43;;;;;;;0.65;0.65;;;1.30;99.90;;;;;;4430124;32;20116;-54
2021/01/11 03:54:08;;;;;;;0.70;0.70;;;1.20;99.90;;;;;;4429744;32;20518;-57
2021/01/11 03:56:34;;;;;;;0.60;0.60;;;1.20;99.90;;;;;;4430578;32;20527;-57
2021/01/11 03:59:00;;;;;;;0.43;0.43;;;1.10;99.90;;;;;;4429185;32;20091;-57
2021/01/11 04:01:27;;;;;;;1.27;1.20;;;1.10;99.90;;;;;;4431340;32;20569;-55
2021/01/11 04:03:53;;;;;;;0.70;0.70;;;1.10;99.90;;;;;;4430657;32;20057;-54
2021/01/11 04:06:20;;;;;;;0.73;0.73;;;1.10;99.90;;;;;;4430915;32;20070;-55
2021/01/11 04:08:46;;;;;;;0.55;0.55;;;1.20;99.90;;;;;;4430675;32;20061;-57
2021/01/11 04:11:12;;;;;;;0.40;0.40;;;1.20;99.90;;;;;;4430045;32;20428;-55
2021/01/11 04:13:38;;;;;;;0.55;0.55;;;1.10;99.90;;;;;;4430938;32;20108;-54
2021/01/11 04:16:04;;;;;;;0.95;0.95;;;1.10;99.90;;;;;;4431107;32;20515;-54
2021/01/11 04:18:30;;;;;;;6.43;1.77;;;1.10;99.90;;;;;;4429380;32;20082;-58
2021/01/11 04:20:55;;;;;;;0.40;0.40;;;1.00;99.90;;;;;;4429965;32;20061;-57
2021/01/11 04:23:21;;;;;;;0.37;0.37;;;1.10;99.90;;;;;;4430803;32;20061;-58
2021/01/11 04:25:46;;;;;;;0.55;0.55;;;1.10;99.90;;;;;;4430856;32;20073;-57
2021/01/11 04:28:12;;;;;;;0.55;0.55;;;1.10;99.90;;;;;;4429379;32;20053;-54
2021/01/11 04:30:38;;;;;;;0.65;0.62;;;1.10;99.90;;;;;;4416615;32;20530;-58
2021/01/11 04:33:03;;;;;;;23.20;1.55;;;1.10;99.90;;;;;;4430009;32;20077;-53
2021/01/11 04:35:29;;;;;;;0.57;0.57;;;1.10;99.90;;;;;;4430519;32;20573;-55
2021/01/11 04:37:55;;;;;;;2.70;1.08;;;1.10;99.90;;;;;;4416965;32;20057;-56
2021/01/11 04:40:21;;;;;;;0.45;0.45;;;1.00;99.90;;;;;;4430830;32;20074;-58
2021/01/11 04:42:49;;;;;;;0.30;0.30;;;1.20;99.90;;;;;;4428670;32;20053;-58
2021/01/11 04:45:16;;;;;;;0.82;0.82;;;1.10;99.90;;;;;;4430010;32;20429;-57
2021/01/11 04:47:42;;;;;;;0.52;0.52;;;1.20;99.90;;;;;;4417237;32;20065;-55
2021/01/11 04:50:09;;;;;;;0.60;0.60;;;1.20;99.90;;;;;;4428712;32;20066;-56
2021/01/11 04:52:34;;;;;;;0.90;0.82;;;1.00;99.90;;;;;;4428637;32;20056;-57
2021/01/11 04:55:06;;;;;;;1.33;0.88;;;1.10;99.90;;;;;;4428311;32;20121;-56
2021/01/11 04:57:33;;;;;;;3.92;1.20;;;1.10;99.90;;;;;;4431043;32;20058;-57
2021/01/11 05:00:04;;;;;;;0.82;0.82;;;1.00;99.90;;;;;;4429282;32;20076;-53
2021/01/11 05:02:30;;;;;;;0.43;0.43;;;1.10;99.90;;;;;;4429739;32;20111;-54
2021/01/11 05:04:56;;;;;;;0.45;0.45;;;1.10;99.90;;;;;;4429935;32;20078;-57
2021/01/11 05:07:23;;;;;;;0.40;0.40;;;1.00;99.90;;;;;;4430611;32;20053;-55
2021/01/11 05:09:49;;;;;;;1.25;1.10;;;1.00;99.90;;;;;;4429764;32;20120;-54
2021/01/11 05:12:15;;;;;;;0.70;0.70;;;1.00;99.90;;;;;;4440257;32;20060;-57
2021/01/11 05:14:41;;;;;;;0.70;0.70;;;1.00;99.90;;;;;;4444918;32;20172;-57
2021/01/11 05:17:10;;;;;;;1.05;1.00;;;1.00;99.90;;;;;;4444535;32;20085;-55
2021/01/11 05:19:36;;;;;;;0.73;0.73;;;1.10;99.90;;;;;;4444634;32;20057;-56
2021/01/11 05:22:02;;;;;;;0.52;0.52;;;1.10;99.90;;;;;;4432372;32;20077;-56
2021/01/11 05:24:46;;;;;;;0.40;0.40;;;1.00;99.90;;;;;;4444457;32;20549;-57
2021/01/11 05:27:11;;;;;;;1.37;0.88;;;1.00;99.90;;;;;;4445824;32;20119;-57
2021/01/11 05:29:38;;;;;;;0.50;0.50;;;1.00;99.90;;;;;;4445697;32;20081;-53
2021/01/11 05:32:06;;;;;;;0.60;0.60;;;0.90;99.90;;;;;;4432185;32;20068;-56
2021/01/11 05:34:51;;;;;;;0.52;0.52;;;0.80;99.90;;;;;;4444976;32;20061;-57
2021/01/11 05:37:38;;;;;;;0.60;0.60;;;0.80;99.90;;;;;;4445501;32;20077;-54
2021/01/11 05:40:06;;;;;;;0.65;0.65;;;0.90;99.90;;;;;;4443348;32;20108;-58
2021/01/11 05:42:32;;;;;;;0.65;0.65;;;0.90;99.90;;;;;;4444580;32;20077;-55
2021/01/11 05:45:17;;;;;;;1.80;1.65;;;0.90;99.90;;;;;;4445233;32;20538;-54
2021/01/11 05:48:06;;;;;;;5.12;1.05;;;0.90;99.90;;;;;;4444354;32;20117;-57
2021/01/11 05:50:43;;;;;;;1.20;0.98;;;1.00;99.90;;;;;;4443295;32;20085;-56
2021/01/11 05:53:19;;;;;;;0.60;0.60;;;1.00;99.90;;;;;;4444535;32;20115;-52
2021/01/11 05:55:46;;;;;;;0.85;0.85;;;0.90;99.90;;;;;;4443891;32;20083;-56
2021/01/11 05:58:11;;;;;;;0.30;0.30;;;0.90;99.90;;;;;;4430825;32;20487;-57
2021/01/11 06:00:39;;;;;;;1.05;0.95;;;0.90;99.90;;;;;;4443842;32;20066;-55
2021/01/11 06:03:06;;;;;;;0.68;0.68;;;1.00;99.90;;;;;;4428912;32;20641;-57
2021/01/11 06:05:33;;;;;;;0.60;0.60;;;0.80;99.90;;;;;;4442860;32;20069;-57
2021/01/11 06:08:00;;;;;;;0.85;0.85;;;0.70;99.90;;;;;;4442043;32;20053;-53
2021/01/11 06:10:27;;;;;;;0.50;0.50;;;0.80;99.90;;;;;;4429683;32;20082;-54
2021/01/11 06:12:53;;;;;;;0.60;0.60;;;0.80;99.90;;;;;;4444886;32;20115;-56
2021/01/11 06:15:22;;;;;;;0.50;0.50;;;0.90;99.90;;;;;;4445266;32;20489;-57
2021/01/11 06:17:50;;;;;;;0.57;0.57;;;0.90;99.90;;;;;;4443144;32;20065;-55
2021/01/11 06:20:19;;;;;;;0.85;0.85;;;0.90;99.90;;;;;;4443038;32;20081;-56
2021/01/11 06:22:47;;;;;;;0.57;0.57;;;1.00;99.90;;;;;;4442966;32;20057;-55
2021/01/11 06:25:22;;;;;;;0.60;0.60;;;1.00;99.90;;;;;;4444235;32;20065;-52
2021/01/11 06:27:54;;;;;;;0.40;0.40;;;1.00;99.90;;;;;;4444079;32;20074;-54
2021/01/11 06:30:44;;;;;;;0.68;0.68;;;1.00;99.90;;;;;;4442564;32;20061;-56
2021/01/11 06:33:16;;;;;;;0.57;0.57;;;1.10;99.90;;;;;;4445804;32;20065;-54
2021/01/11 06:35:46;;;;;;;0.45;0.45;;;1.00;99.90;;;;;;4445870;32;20572;-54
2021/01/11 06:38:22;;;;;;;0.62;0.62;;;1.00;99.90;;;;;;4446835;32;20123;-54
2021/01/11 06:40:51;;;;;;;0.73;0.70;;;1.00;99.90;;;;;;4445689;32;20065;-56
2021/01/11 06:43:18;;;;;;;0.85;0.85;;;0.90;99.90;;;;;;4446575;32;20065;-57
2021/01/11 06:45:46;;;;;;;1.12;0.88;;;1.00;99.90;;;;;;4445300;32;20072;-56
2021/01/11 06:48:15;;;;;;;0.50;0.50;;;1.00;99.90;;;;;;4446033;32;20069;-57
2021/01/11 06:50:43;;;;;;;0.40;0.40;;;1.10;99.90;;;;;;4432200;32;20458;-56
2021/01/11 06:53:08;;;;;;;0.50;0.50;;;1.00;99.90;;;;;;4431745;32;20107;-57
2021/01/11 06:55:34;;;;;;;0.50;0.50;;;1.10;99.90;;;;;;4446692;32;20526;-57
2021/01/11 06:58:02;;;;;;;0.85;0.85;;;1.10;99.90;;;;;;4436948;32;20065;-58
2021/01/11 07:00:42;;;;;;;0.40;0.40;;;1.00;99.90;;;;;;4429599;32;20128;-57
2021/01/11 07:03:08;;;;;;;0.75;0.75;;;1.00;99.90;;;;;;4440556;32;20073;-56
2021/01/11 07:05:36;;;;;;;0.47;0.47;;;0.90;99.90;;;;;;4444783;32;20116;-56
2021/01/11 07:08:03;;;;;;;0.50;0.50;;;0.90;99.90;;;;;;4435487;32;20077;-57
2021/01/11 07:10:29;;;;;;;0.73;0.73;;;0.90;99.90;;;;;;4444437;32;20085;-55
2021/01/11 07:13:19;;;;;;;0.55;0.55;;;1.00;99.90;;;;;;4430096;32;20065;-57
2021/01/11 07:15:54;;;;;;;0.60;0.60;;;1.10;99.90;;;;;;4430034;32;20069;-56
2021/01/11 07:18:42;;;;;;;0.70;0.70;;;1.10;99.90;;;;;;4430686;32;20135;-58
2021/01/11 07:21:13;;;;;;;0.50;0.50;;;1.10;99.90;;;;;;4439535;32;20093;-55
2021/01/11 07:23:39;;;;;;;0.75;0.65;;;1.20;99.90;;;;;;4445372;32;20056;-58
2021/01/11 07:26:11;;;;;;;0.57;0.57;;;1.20;99.90;;;;;;4445962;32;20546;-55
2021/01/11 07:28:36;;;;;;;0.52;0.52;;;1.20;99.90;;;;;;4446261;32;20089;-56
2021/01/11 07:31:01;;;;;;;0.40;0.40;;;1.20;99.90;;;;;;4446356;32;20050;-57
2021/01/11 07:33:27;;;;;;;0.95;0.73;;;1.20;99.90;;;;;;4446275;32;20060;-59
2021/01/11 07:35:52;;;;;;;2.35;1.05;;;1.20;99.90;;;;;;4444646;32;20440;-55
2021/01/11 07:38:19;;;;;;;0.30;0.30;;;1.10;99.90;;;;;;4445230;32;20069;-55
2021/01/11 07:40:44;;;;;;;0.40;0.40;;;1.20;99.90;;;;;;4446013;32;20068;-58
2021/01/11 07:43:10;;;;;;;0.40;0.40;;;1.10;99.90;;;;;;4445008;32;20512;-57
2021/01/11 07:45:36;;;;;;;0.70;0.70;;;1.00;99.90;;;;;;4443785;32;20156;-55
2021/01/11 07:48:01;;;;;;;2.12;1.00;;;1.10;99.90;;;;;;4444476;32;20061;-58
2021/01/11 07:50:29;;;;;;;0.50;0.50;;;1.00;99.90;;;;;;4447040;32;20056;-57
2021/01/11 07:52:55;;;;;;;0.60;0.60;;;1.10;99.90;;;;;;4443351;32;20060;-58
2021/01/11 07:55:28;;;;;;;0.50;0.50;;;1.20;99.90;;;;;;4444929;32;20461;-58
2021/01/11 07:58:01;;;;;;;0.60;0.60;;;1.30;99.90;;;;;;4432444;32;20066;-58
2021/01/11 08:00:27;;;;;;;0.88;0.70;;;1.20;99.90;;;;;;4430337;32;20093;-58
2021/01/11 08:02:54;;;;;;;0.43;0.43;;;1.10;99.90;;;;;;4429886;32;20058;-57
2021/01/11 08:05:21;;;;;;;0.88;0.85;;;1.10;99.90;;;;;;4430539;32;20534;-56
2021/01/11 08:07:49;;;;;;;2.05;0.73;;;1.20;99.90;;;;;;4444065;32;20069;-57
2021/01/11 08:10:21;;;;;;;0.50;0.50;;;1.20;99.90;;;;;;4443027;32;20070;-59
2021/01/11 08:12:47;;;;;;;1.15;1.10;;;1.20;99.90;;;;;;4430094;32;20113;-57
2021/01/11 08:15:12;;;;;;;0.40;0.40;;;1.30;99.90;;;;;;4429930;32;20064;-59
2021/01/11 08:17:41;;;;;;;0.45;0.45;;;1.30;99.90;;;;;;4430091;32;20113;-57
2021/01/11 08:20:08;;;;;;;1.40;1.30;;;1.30;99.90;;;;;;4429559;32;20128;-57
2021/01/11 08:22:33;;;;;;;0.75;0.75;;;1.30;99.90;;;;;;4427734;32;20069;-55
2021/01/11 08:24:59;;;;;;;0.50;0.50;;;1.30;99.90;;;;;;4429332;32;20053;-57
2021/01/11 08:27:32;;;;;;;0.40;0.40;;;1.20;99.90;;;;;;4430415;32;20416;-57
2021/01/11 08:30:05;;;;;;;0.50;0.50;;;1.20;99.90;;;;;;4430002;32;20058;-58
2021/01/11 08:32:32;;;;;;;0.40;0.40;;;1.30;99.90;;;;;;4415171;32;20111;-58
2021/01/11 08:34:58;;;;;;;0.82;0.50;;;1.40;99.90;;;;;;4430192;32;20079;-55
2021/01/11 08:37:32;;;;;;;0.60;0.60;;;1.40;99.90;;;;;;4429086;32;20053;-58
2021/01/11 08:40:00;;;;;;;0.40;0.40;;;1.50;99.90;;;;;;4428947;32;20090;-58
2021/01/11 08:42:27;;;;;;;0.73;0.70;;;1.60;99.90;;;;;;4424964;32;90312;-56
2021/01/11 08:44:53;;;;;;;0.30;0.30;;;1.50;99.90;;;;;;4427837;32;20606;-57
2021/01/11 08:47:27;;;;;;;0.37;0.37;;;1.60;99.90;;;;;;4429634;32;20389;-58
2021/01/11 08:49:56;;;;;;;0.40;0.40;;;1.60;99.90;;;;;;4428546;32;20078;-58
2021/01/11 08:52:27;;;;;;;0.68;0.68;;;1.60;99.90;;;;;;4428704;32;20124;-56
2021/01/11 08:54:52;;;;;;;0.95;0.95;;;1.70;99.90;;;;;;4426355;32;20518;-56
2021/01/11 08:57:18;;;;;;;0.37;0.37;;;1.70;99.90;;;;;;4435523;32;20073;-58
2021/01/11 08:59:49;;;;;;;0.50;0.50;;;1.80;99.90;;;;;;4444130;32;20069;-57
2021/01/11 09:02:30;;;;;;;;;;;1.70;99.90;;;;;;4444564;32;20127;-57
2021/01/11 09:04:56;;;;;;;;;;;1.70;99.90;;;;;;4445244;32;19956;-55
2021/01/11 09:07:27;;;;;;;4.68;2.05;;;1.70;99.90;;;;;;4433908;32;20011;-56
2021/01/11 09:09:52;;;;;;;0.77;0.77;;;1.80;99.90;;;;;;4427896;32;20065;-57
2021/01/11 09:12:29;;;;;;;0.52;0.52;;;1.60;99.90;;;;;;4441378;32;20077;-57
2021/01/11 09:14:55;;;;;;;1.05;0.60;;;1.70;99.90;;;;;;4444150;32;20085;-53
2021/01/11 09:17:30;;;;;;;0.50;0.50;;;1.70;99.90;;;;;;4444666;32;20405;-54
2021/01/11 09:19:59;;;;;;;0.40;0.40;;;1.70;99.90;;;;;;4444475;32;20541;-52
2021/01/11 09:22:37;;;;;;;0.50;0.50;;;1.70;99.90;;;;;;4429978;32;20469;-55
2021/01/11 09:25:08;;;;;;;0.82;0.82;;;1.70;99.90;;;;;;4443903;32;20073;-55
2021/01/11 09:27:34;;;;;;;;;;;1.80;99.90;;;;;;4445670;32;20536;-57
2021/01/11 09:30:00;;;;;;;0.43;0.43;;;1.80;99.90;;;;;;4444537;32;19972;-56
2021/01/11 09:32:25;;;;;;;1.20;0.98;;;1.60;99.90;;;;;;4444925;32;20444;-54
2021/01/11 09:34:51;;;;;;;1.08;0.65;;;1.70;99.90;;;;;;4444574;32;20065;-56
2021/01/11 09:37:16;;;;;;;0.50;0.50;;;1.80;99.90;;;;;;4443529;32;20058;-55
2021/01/11 09:39:42;;;;;;;0.65;0.60;;;1.80;99.90;;;;;;4417376;32;20089;-57
2021/01/11 09:42:08;;;;;;;0.50;0.50;;;1.90;99.90;;;;;;4443566;32;20061;-54
2021/01/11 09:44:34;;;;;;;0.52;0.52;;;2.00;99.90;;;;;;4442799;32;20123;-58
2021/01/11 09:47:00;;;;;;;0.57;0.57;;;1.90;99.90;;;;;;4444149;32;20065;-57
2021/01/11 09:49:26;;;;;;;0.45;0.45;;;1.90;99.90;;;;;;4443197;32;20061;-56
2021/01/11 09:51:52;;;;;;;1.65;1.20;;;2.00;99.90;;;;;;4443565;32;20124;-57
2021/01/11 09:54:18;;;;;;;0.37;0.37;;;2.00;99.90;;;;;;4430046;32;20124;-54
2021/01/11 09:56:44;;;;;;;0.50;0.50;;;2.00;99.90;;;;;;4436481;32;20128;-58
2021/01/11 09:59:10;;;;;;;0.60;0.60;;;2.00;99.90;;;;;;4429225;32;20082;-55
2021/01/11 10:01:37;;;;;;;1.17;0.98;;;1.90;99.90;;;;;;4428707;32;20068;-55
2021/01/11 10:04:02;;;;;;;0.90;0.90;;;2.00;99.90;;;;;;4429672;32;20069;-53
2021/01/11 10:06:38;;;;;;;0.62;0.60;;;2.00;99.90;;;;;;4434929;32;20081;-56
2021/01/11 10:09:04;;;;;;;0.32;0.32;;;2.00;99.90;;;;;;4446472;32;20112;-53
2021/01/11 10:11:30;;;;;;;0.55;0.55;;;2.00;99.90;;;;;;4440323;32;20140;-55
2021/01/11 10:13:55;;;;;;;0.40;0.40;;;2.00;99.90;;;;;;4433062;32;20082;-52
2021/01/11 10:16:21;;;;;;;0.40;0.40;;;2.00;99.90;;;;;;4431975;32;20511;-55
2021/01/11 10:18:46;;;;;;;0.40;0.40;;;2.00;99.90;;;;;;4432674;32;20085;-57
2021/01/11 10:21:13;;;;;;;0.45;0.45;;;2.10;99.90;;;;;;4431670;32;20118;-55
2021/01/11 10:23:38;;;;;;;0.95;0.73;;;2.10;99.90;;;;;;4430860;32;20073;-56
2021/01/11 10:26:04;;;;;;;0.60;0.60;;;2.00;99.90;;;;;;4432055;32;20057;-56
2021/01/11 10:28:29;;;;;;;0.50;0.50;;;2.00;99.90;;;;;;4431020;32;20121;-57
2021/01/11 10:30:55;;;;;;;5.05;1.62;;;2.00;99.90;;;;;;4431591;32;20108;-56
2021/01/11 10:33:20;;;;;;;1.15;1.05;;;2.10;99.90;;;;;;4431591;32;20069;-54
2021/01/11 10:35:46;;;;;;;0.82;0.82;;;2.10;99.90;;;;;;4431262;32;20058;-56
2021/01/11 10:38:11;;;;;;;0.40;0.40;;;2.20;99.90;;;;;;4431745;32;20061;-55
2021/01/11 10:40:37;;;;;;;0.50;0.50;;;2.30;99.90;;;;;;4431691;32;20109;-57
2021/01/11 10:43:03;;;;;;;0.40;0.40;;;2.30;99.90;;;;;;4432077;32;20116;-58
2021/01/11 10:45:28;;;;;;;0.35;0.35;;;2.40;99.90;;;;;;4431276;32;20135;-56
2021/01/11 10:47:53;;;;;;;0.40;0.40;;;2.40;99.90;;;;;;4431084;32;20112;-56
2021/01/11 10:50:19;;;;;;;0.60;0.60;;;2.40;99.90;;;;;;4431299;32;20064;-56
2021/01/11 10:52:45;;;;;;;0.40;0.40;;;2.40;99.90;;;;;;4432354;32;20065;-55
2021/01/11 10:55:11;;;;;;;1.45;0.77;;;2.30;99.90;;;;;;4431774;32;20085;-57
2021/01/11 10:57:36;;;;;;;0.40;0.40;;;2.30;99.90;;;;;;4431767;32;20194;-54
2021/01/11 11:00:11;;;;;;;0.37;0.37;;;2.40;99.90;;;;;;4431975;32;20069;-56
2021/01/11 11:02:37;;;;;;;0.60;0.52;;;2.20;99.90;;;;;;4431838;32;20124;-56
2021/01/11 11:05:04;;;;;;;0.40;0.40;;;2.10;99.90;;;;;;4431773;32;20123;-54
2021/01/11 11:07:35;;;;;;;0.35;0.35;;;2.20;99.90;;;;;;4443700;32;20407;-57
2021/01/11 11:10:03;;;;;;;0.40;0.40;;;2.20;99.90;;;;;;4445303;32;20076;-55
2021/01/11 11:12:29;;;;;;;0.37;0.37;;;2.20;99.90;;;;;;4434050;32;20152;-56
2021/01/11 11:14:54;;;;;;;0.50;0.50;;;2.30;99.90;;;;;;4431112;32;20058;-55
2021/01/11 11:17:20;;;;;;;0.40;0.40;;;2.20;99.90;;;;;;4430832;32;20545;-54
2021/01/11 11:19:45;;;;;;;0.50;0.50;;;2.20;99.90;;;;;;4431431;32;20355;-53
2021/01/11 11:22:11;;;;;;;0.30;0.30;;;2.10;99.90;;;;;;4431423;32;20073;-55
2021/01/11 11:24:36;;;;;;;0.30;0.30;;;2.00;99.90;;;;;;4429100;32;20514;-53
2021/01/11 11:27:02;;;;;;;0.85;0.75;;;2.00;99.90;;;;;;4431486;32;20120;-53
2021/01/11 11:29:28;;;;;;;0.82;0.82;;;2.10;99.90;;;;;;4429569;32;20565;-57
2021/01/11 11:31:53;;;;;;;3.00;0.93;;;2.10;99.90;;;;;;4430432;32;20554;-54
2021/01/11 11:34:19;;;;;;;1.30;0.82;;;2.10;99.90;;;;;;4431092;32;20062;-54
2021/01/11 11:36:44;;;;;;;0.52;0.52;;;2.10;99.90;;;;;;4430359;32;20058;-57
2021/01/11 11:39:10;;;;;;;0.40;0.40;;;2.10;99.90;;;;;;4430746;32;20111;-56
2021/01/11 11:41:36;;;;;;;0.52;0.52;;;2.20;99.90;;;;;;4431087;32;20069;-53
2021/01/11 11:44:02;;;;;;;0.40;0.40;;;2.10;99.90;;;;;;4431285;32;20065;-54
2021/01/11 11:46:29;;;;;;;0.30;0.30;;;2.10;99.90;;;;;;4429522;32;20124;-53
2021/01/11 11:48:55;;;;;;;0.30;0.30;;;2.00;99.90;;;;;;4429007;32;20065;-56
2021/01/11 11:51:21;;;;;;;1.33;1.23;;;2.00;99.90;;;;;;4430921;32;20069;-57
2021/01/11 11:53:46;;;;;;;0.47;0.47;;;2.10;99.90;;;;;;4431417;32;20074;-56
2021/01/11 11:56:13;;;;;;;0.45;0.45;;;2.00;99.90;;;;;;4432192;32;20078;-56
2021/01/11 11:58:38;;;;;;;0.40;0.40;;;2.00;99.90;;;;;;4446541;32;20077;-57
2021/01/11 12:01:04;;;;;;;0.30;0.30;;;2.00;99.90;;;;;;4446033;32;20085;-56
2021/01/11 12:03:29;;;;;;;0.35;0.35;;;1.90;99.90;;;;;;4444800;32;20073;-53
2021/01/11 12:05:55;;;;;;;0.40;0.40;;;2.00;99.90;;;;;;4444231;32;20069;-53
2021/01/11 12:08:20;;;;;;;0.40;0.40;;;2.00;99.90;;;;;;4429574;32;20112;-55
2021/01/11 12:10:46;;;;;;;0.62;0.62;;;2.00;99.90;;;;;;4431175;32;20165;-56
2021/01/11 12:13:11;;;;;;;1.65;0.80;;;1.80;99.90;;;;;;4445975;32;20081;-54
2021/01/11 12:15:37;;;;;;;1.15;1.05;;;1.90;99.90;;;;;;4446883;32;20061;-57
2021/01/11 12:18:02;;;;;;;0.32;0.32;;;1.90;99.90;;;;;;4446355;32;20459;-55
2021/01/11 12:20:27;;;;;;;1.52;0.98;;;2.10;99.90;;;;;;4445026;32;20123;-56
2021/01/11 12:22:53;;;;;;;0.50;0.50;;;2.30;99.90;;;;;;4445198;32;20374;-54
2021/01/11 12:25:18;;;;;;;0.52;0.52;;;2.30;99.90;;;;;;4446563;32;20068;-56
2021/01/11 12:27:44;;;;;;;0.37;0.37;;;2.30;99.90;;;;;;4445540;32;20073;-58
2021/01/11 12:30:10;;;;;;;0.52;0.52;;;2.20;99.90;;;;;;4446559;32;20076;-54
2021/01/11 12:32:39;;;;;;;2.40;0.70;;;2.10;99.90;;;;;;4445251;32;20077;-58
2021/01/11 12:35:05;;;;;;;0.40;0.40;;;2.10;99.90;;;;;;4446135;32;20172;-56
2021/01/11 12:37:30;;;;;;;0.40;0.40;;;2.10;99.90;;;;;;4446180;32;20081;-57
2021/01/11 12:39:56;;;;;;;0.40;0.40;;;2.10;99.90;;;;;;4444048;32;20068;-54
2021/01/11 12:42:21;;;;;;;0.62;0.62;;;2.10;99.90;;;;;;4445126;32;20139;-53
2021/01/11 12:44:47;;;;;;;0.60;0.60;;;2.00;99.90;;;;;;4446105;32;20062;-55
2021/01/11 12:47:12;;;;;;;0.43;0.43;;;1.90;99.90;;;;;;4445995;32;20568;-57
2021/01/11 12:49:39;;;;;;;0.40;0.40;;;1.90;99.90;;;;;;4444568;32;20065;-58
2021/01/11 12:52:05;;;;;;;0.80;0.65;;;2.00;99.90;;;;;;4444980;32;20069;-53
2021/01/11 12:54:30;;;;;;;0.57;0.57;;;1.90;99.90;;;;;;4444900;32;20068;-54
2021/01/11 12:56:56;;;;;;;0.50;0.50;;;1.90;99.90;;;;;;4439954;32;20069;-54
2021/01/11 12:59:21;;;;;;;0.40;0.40;;;2.00;99.90;;;;;;4429875;32;20139;-54
2021/01/11 13:01:47;;;;;;;0.40;0.40;;;2.10;99.90;;;;;;4430537;32;20253;-56